UUOO/VOZ METAR and TAF weather

Enter ICAO airport designator
Station Type Date Time Source
UUOO METAR 2020/07/11 04:00 UTC NOAA

UUOO 110400Z 00000MPS CAVOK 19/09 Q1023 R30/090070 NOSIG RMK QFE753


Station Type Date Time Source
UUOO Decoded METAR 2020/07/11 04:00 UTC NOAA

Voronez, Russia (UUOO) 51-39N 039-15E 104M
Jul 11, 2020 - 12:00 AM EDT / 2020.07.11 0400 UTC
Wind: Calm:0
Visibility: greater than 7 mile(s):0
Temperature: 66 F (19 C)
Dew Point: 48 F (9 C)
Relative Humidity: 52%
Pressure (altimeter): 30.21 in. Hg (1023 hPa)
ob: UUOO 110400Z 00000MPS CAVOK 19/09 Q1023 R30/090070 NOSIG RMK QFE753
cycle: 4

Station Type Date Time Source
UUOO TAF 2019/08/12 03:33 UTC NOAA

TAF COR TAF COR UUOO 120159 1203/1212 31003MPS CAVOK

Example: see airport list